Time;durP1;ratioP1;P1;durP2;ratioP2;P2;SDS_P1;SDS_P2;PMS_P1;PMS_P2;Temp;Humidity;BMP_temperature;BMP_pressure;BME280_temperature;BME280_humidity;BME280_pressure;Samples;Min_cycle;Max_cycle;Signal;HPM_P1;HPM_P2
2023/03/30 00:02:02;;;;;;;1.42;1.33;;;16.70;56.60;;;;;;5055721;28;20243;-63
2023/03/30 00:04:33;;;;;;;2.25;1.50;;;16.60;56.40;;;;;;5055152;28;20692;-62
2023/03/30 00:06:59;;;;;;;1.95;1.50;;;16.60;56.50;;;;;;5055564;28;20187;-61
2023/03/30 00:09:29;;;;;;;1.70;1.60;;;16.60;56.50;;;;;;5055888;28;20172;-61
2023/03/30 00:11:55;;;;;;;1.70;1.55;;;16.70;56.60;;;;;;5054902;28;20187;-61
2023/03/30 00:14:25;;;;;;;2.33;1.48;;;16.60;56.50;;;;;;5055796;28;20181;-62
2023/03/30 00:16:52;;;;;;;1.92;1.50;;;16.60;56.50;;;;;;5055325;28;20241;-62
2023/03/30 00:19:17;;;;;;;2.00;1.35;;;16.60;56.50;;;;;;5054918;28;20199;-61
2023/03/30 00:21:44;;;;;;;1.50;1.33;;;16.60;56.60;;;;;;5055062;28;20719;-61
2023/03/30 00:24:10;;;;;;;1.42;1.33;;;16.60;56.50;;;;;;5055167;28;20544;-61
2023/03/30 00:26:35;;;;;;;1.60;1.50;;;16.60;56.50;;;;;;5055659;28;20703;-62
2023/03/30 00:29:01;;;;;;;1.50;1.40;;;16.60;56.60;;;;;;5055355;28;20191;-62
2023/03/30 00:31:26;;;;;;;1.63;1.52;;;16.60;56.60;;;;;;5054782;28;20171;-63
2023/03/30 00:33:52;;;;;;;1.58;1.48;;;16.60;56.60;;;;;;5055081;28;20175;-62
2023/03/30 00:36:17;;;;;;;1.67;1.50;;;16.60;56.60;;;;;;5055373;28;20225;-62
2023/03/30 00:38:44;;;;;;;1.70;1.60;;;16.50;56.60;;;;;;5054405;28;20175;-62
2023/03/30 00:41:09;;;;;;;1.58;1.48;;;16.60;56.50;;;;;;5055325;28;20175;-61
2023/03/30 00:43:53;;;;;;;1.70;1.38;;;16.50;56.60;;;;;;5055433;28;20178;-62
2023/03/30 00:46:21;;;;;;;2.55;1.88;;;16.50;56.60;;;;;;5053237;28;20176;-61
2023/03/30 00:48:47;;;;;;;1.42;1.33;;;16.50;56.50;;;;;;5054813;28;20661;-62
2023/03/30 00:51:13;;;;;;;1.65;1.40;;;16.50;56.50;;;;;;5053782;28;20183;-61
2023/03/30 00:53:41;;;;;;;2.03;1.60;;;16.50;56.60;;;;;;5053159;28;20233;-62
2023/03/30 00:56:08;;;;;;;1.75;1.20;;;16.50;56.60;;;;;;5053566;28;20701;-61
2023/03/30 00:58:36;;;;;;;1.73;1.25;;;16.40;56.50;;;;;;5053584;28;20187;-62
2023/03/30 01:01:02;;;;;;;1.30;1.20;;;16.50;56.60;;;;;;5036069;28;20707;-63
2023/03/30 01:03:31;;;;;;;1.75;1.63;;;16.50;56.60;;;;;;5053429;28;20215;-62
2023/03/30 01:05:58;;;;;;;1.92;1.58;;;16.50;56.70;;;;;;5053362;28;20209;-61
2023/03/30 01:08:26;;;;;;;1.67;1.58;;;16.50;56.70;;;;;;5052765;28;20179;-61
2023/03/30 01:10:51;;;;;;;1.48;1.38;;;16.50;56.70;;;;;;5035378;28;20183;-61
2023/03/30 01:13:17;;;;;;;1.67;1.55;;;16.50;56.70;;;;;;5053868;28;20201;-62
2023/03/30 01:16:22;;;;;;;1.77;1.38;;;16.50;56.70;;;;;;5036321;28;20621;-61
2023/03/30 01:19:15;;;;;;;1.35;1.25;;;16.50;56.70;;;;;;5053307;28;20183;-61
2023/03/30 01:21:58;;;;;;;1.23;1.13;;;16.40;56.70;;;;;;5053365;28;20227;-60
2023/03/30 01:24:47;;;;;;;1.38;1.17;;;16.40;56.60;;;;;;5054547;28;20179;-62
2023/03/30 01:27:27;;;;;;;1.25;1.17;;;16.40;56.80;;;;;;5054512;28;20200;-61
2023/03/30 01:30:18;;;;;;;2.55;1.42;;;16.40;56.70;;;;;;5053133;28;20640;-63
2023/03/30 01:33:02;;;;;;;1.98;1.10;;;16.40;56.70;;;;;;5037436;28;20183;-64
2023/03/30 01:35:41;;;;;;;2.05;1.48;;;16.40;56.60;;;;;;5053607;28;20167;-63
2023/03/30 01:38:48;;;;;;;1.30;1.20;;;16.40;56.70;;;;;;5052664;28;20218;-62
2023/03/30 01:41:29;;;;;;;2.00;1.38;;;16.40;56.70;;;;;;5053341;28;20190;-62
2023/03/30 01:44:07;;;;;;;2.05;1.40;;;16.40;56.70;;;;;;5052716;28;20651;-62
2023/03/30 01:46:39;;;;;;;1.50;1.40;;;16.40;56.70;;;;;;5037755;28;20171;-63
2023/03/30 01:49:23;;;;;;;1.77;1.40;;;16.40;56.70;;;;;;5035880;28;20267;-62
2023/03/30 01:52:12;;;;;;;1.63;1.50;;;16.40;56.80;;;;;;5053859;28;20171;-62
2023/03/30 01:54:43;;;;;;;1.25;1.15;;;16.40;56.80;;;;;;5052698;28;20179;-62
2023/03/30 01:57:12;;;;;;;1.48;1.38;;;16.40;56.80;;;;;;5035619;28;20214;-62
2023/03/30 02:00:00;;;;;;;1.38;1.27;;;16.40;56.80;;;;;;5036065;28;20248;-63
2023/03/30 02:02:31;;;;;;;1.65;1.10;;;16.40;56.80;;;;;;5035907;28;20600;-63
2023/03/30 02:04:58;;;;;;;1.20;1.10;;;16.40;56.80;;;;;;5052176;28;20202;-63
2023/03/30 02:07:25;;;;;;;1.88;1.40;;;16.30;56.80;;;;;;5035960;28;20194;-62
2023/03/30 02:09:52;;;;;;;1.60;1.48;;;16.40;56.80;;;;;;5051160;28;20175;-62
2023/03/30 02:12:17;;;;;;;1.42;1.30;;;16.40;56.90;;;;;;5035942;28;20186;-62
2023/03/30 02:14:43;;;;;;;1.90;1.35;;;16.30;56.80;;;;;;5053254;28;20180;-62
2023/03/30 02:17:13;;;;;;;1.63;1.48;;;16.30;56.80;;;;;;5052525;28;20215;-62
2023/03/30 02:19:38;;;;;;;1.55;1.20;;;16.30;56.80;;;;;;5053260;28;20181;-62
2023/03/30 02:22:05;;;;;;;1.80;1.70;;;16.40;56.90;;;;;;5052656;28;20253;-62
2023/03/30 02:24:30;;;;;;;1.95;1.40;;;16.30;56.80;;;;;;5052539;28;20175;-61
2023/03/30 02:26:56;;;;;;;2.33;1.10;;;16.30;56.80;;;;;;5052024;28;20182;-62
2023/03/30 02:29:21;;;;;;;1.88;1.40;;;16.30;56.80;;;;;;5035401;28;20175;-62
2023/03/30 02:31:48;;;;;;;3.50;1.58;;;16.30;56.90;;;;;;5052378;28;20244;-63
2023/03/30 02:34:29;;;;;;;1.45;1.35;;;16.30;56.80;;;;;;5051729;28;20177;-62
2023/03/30 02:37:08;;;;;;;1.30;1.20;;;16.70;57.10;;;;;;5051165;28;20203;-62
2023/03/30 02:39:39;;;;;;;1.40;1.30;;;16.30;56.90;;;;;;5051107;28;20270;-62
2023/03/30 02:42:11;;;;;;;1.63;1.45;;;16.30;56.90;;;;;;5052641;28;20195;-62
2023/03/30 02:44:52;;;;;;;1.60;1.10;;;16.30;57.00;;;;;;5052781;28;20179;-62
2023/03/30 02:47:43;;;;;;;2.13;1.30;;;16.30;57.00;;;;;;5051574;28;20552;-62
2023/03/30 02:50:17;;;;;;;1.30;1.20;;;16.30;57.10;;;;;;5053064;28;20182;-62
2023/03/30 02:52:55;;;;;;;1.60;1.40;;;16.20;56.90;;;;;;5034286;28;20179;-62
2023/03/30 02:55:33;;;;;;;1.80;1.50;;;16.20;57.00;;;;;;5035319;28;20179;-63
2023/03/30 02:58:11;;;;;;;1.40;1.30;;;16.30;57.00;;;;;;5051143;28;20704;-63
2023/03/30 03:00:51;;;;;;;2.28;1.20;;;16.20;56.90;;;;;;5052080;28;20183;-63
2023/03/30 03:03:22;;;;;;;2.10;1.63;;;16.20;57.10;;;;;;5052706;28;20372;-62
2023/03/30 03:05:52;;;;;;;1.50;1.40;;;16.20;56.90;;;;;;5050468;28;20252;-62
2023/03/30 03:08:18;;;;;;;2.30;1.35;;;16.20;56.90;;;;;;5051333;28;20607;-62
2023/03/30 03:10:43;;;;;;;2.42;1.52;;;16.20;57.00;;;;;;5050650;28;20201;-62
2023/03/30 03:13:09;;;;;;;1.50;1.33;;;16.20;56.90;;;;;;5051635;28;20178;-61
2023/03/30 03:15:36;;;;;;;2.33;1.42;;;16.20;56.90;;;;;;5052376;28;20209;-62
2023/03/30 03:18:02;;;;;;;1.52;1.40;;;16.20;57.00;;;;;;5051985;28;20225;-61
2023/03/30 03:20:29;;;;;;;2.00;1.50;;;16.20;57.00;;;;;;5051382;28;20215;-62
2023/03/30 03:22:55;;;;;;;2.60;1.50;;;16.20;57.00;;;;;;5051967;28;20530;-61
2023/03/30 03:25:23;;;;;;;1.45;1.10;;;16.20;57.10;;;;;;5052335;28;20175;-62
2023/03/30 03:27:49;;;;;;;1.65;1.20;;;16.20;57.00;;;;;;5051466;28;20262;-62
2023/03/30 03:30:14;;;;;;;2.40;1.50;;;16.20;57.00;;;;;;5052315;28;20608;-62
2023/03/30 03:32:40;;;;;;;1.38;1.27;;;16.20;57.00;;;;;;5052188;28;20633;-63
2023/03/30 03:35:06;;;;;;;1.77;1.30;;;16.20;57.00;;;;;;5050167;28;20175;-63
2023/03/30 03:37:32;;;;;;;1.60;1.30;;;16.20;57.00;;;;;;5051851;28;20668;-62
2023/03/30 03:39:57;;;;;;;1.40;1.30;;;16.20;57.00;;;;;;5051738;28;20649;-61
2023/03/30 03:42:23;;;;;;;1.15;1.13;;;16.20;57.00;;;;;;5051211;28;20637;-62
2023/03/30 03:44:48;;;;;;;1.73;1.30;;;16.20;57.00;;;;;;5051809;28;20167;-62
2023/03/30 03:47:15;;;;;;;1.55;1.45;;;16.20;57.00;;;;;;5052110;28;20171;-63
2023/03/30 03:49:41;;;;;;;2.50;1.38;;;16.20;57.00;;;;;;5051142;28;20178;-62
2023/03/30 03:52:06;;;;;;;1.42;1.10;;;16.10;57.00;;;;;;5051866;28;20182;-62
2023/03/30 03:54:32;;;;;;;1.40;1.30;;;16.20;57.20;;;;;;5052033;28;20174;-62
2023/03/30 03:56:57;;;;;;;1.73;1.40;;;16.20;57.00;;;;;;5051082;28;20195;-62
2023/03/30 03:59:23;;;;;;;3.50;1.45;;;16.10;57.10;;;;;;5052128;28;20171;-62
2023/03/30 04:01:48;;;;;;;1.20;1.10;;;16.10;57.60;;;;;;5051534;28;20178;-62
2023/03/30 04:04:14;;;;;;;1.27;1.15;;;16.10;57.00;;;;;;5051243;28;20289;-62
2023/03/30 04:06:39;;;;;;;1.20;1.10;;;16.20;57.00;;;;;;5051804;28;20178;-62
2023/03/30 04:09:05;;;;;;;1.40;1.30;;;16.10;57.00;;;;;;5050869;28;20181;-61
2023/03/30 04:11:30;;;;;;;1.13;1.02;;;16.10;57.00;;;;;;5051921;28;20248;-61
2023/03/30 04:13:56;;;;;;;2.10;1.40;;;16.10;57.10;;;;;;5051433;28;20216;-61
2023/03/30 04:16:21;;;;;;;1.20;1.08;;;16.10;57.00;;;;;;5051038;28;20175;-62
2023/03/30 04:18:47;;;;;;;2.10;1.08;;;16.10;57.00;;;;;;5051508;28;20179;-61
2023/03/30 04:21:12;;;;;;;1.30;1.20;;;16.10;57.00;;;;;;5051534;28;20222;-62
2023/03/30 04:23:38;;;;;;;1.90;1.40;;;16.10;57.80;;;;;;5050953;28;20262;-61
2023/03/30 04:26:05;;;;;;;1.50;1.40;;;16.10;57.00;;;;;;5051592;28;20266;-61
2023/03/30 04:28:31;;;;;;;1.30;1.20;;;16.10;57.10;;;;;;5051670;28;20653;-62
2023/03/30 04:31:04;;;;;;;1.20;1.10;;;16.10;57.00;;;;;;5050915;28;20559;-63
2023/03/30 04:33:33;;;;;;;1.50;1.40;;;16.10;57.10;;;;;;5051538;28;20229;-63
2023/03/30 04:35:59;;;;;;;1.30;1.20;;;16.10;57.20;;;;;;5051493;28;20171;-62
2023/03/30 04:38:25;;;;;;;1.92;1.50;;;16.10;57.00;;;;;;5050936;28;20256;-62
2023/03/30 04:40:51;;;;;;;1.33;1.20;;;16.10;57.10;;;;;;5051310;28;20229;-62
2023/03/30 04:43:20;;;;;;;1.00;0.90;;;16.10;57.10;;;;;;5051695;28;20179;-61
2023/03/30 04:45:53;;;;;;;1.40;1.10;;;16.10;57.00;;;;;;5052496;28;20730;-61
2023/03/30 04:48:19;;;;;;;1.38;1.27;;;16.10;57.00;;;;;;5055171;28;20190;-64
2023/03/30 04:50:45;;;;;;;1.20;1.10;;;16.10;57.10;;;;;;5055001;28;20183;-62
2023/03/30 04:53:11;;;;;;;1.55;1.25;;;16.10;57.10;;;;;;5054462;28;20190;-62
2023/03/30 04:55:40;;;;;;;1.27;1.17;;;16.10;57.10;;;;;;5055178;28;20214;-62
2023/03/30 04:58:05;;;;;;;2.33;1.17;;;16.10;57.20;;;;;;5054703;28;20268;-62
2023/03/30 05:00:31;;;;;;;1.45;1.00;;;16.00;57.00;;;;;;5054248;28;20167;-62
2023/03/30 05:02:57;;;;;;;0.98;0.98;;;16.10;57.20;;;;;;5054644;28;20662;-62
2023/03/30 05:05:22;;;;;;;1.25;1.00;;;16.10;57.00;;;;;;5054446;28;20171;-62
2023/03/30 05:07:48;;;;;;;1.55;1.35;;;16.00;57.10;;;;;;5054767;28;20590;-62
2023/03/30 05:10:13;;;;;;;2.13;1.45;;;16.10;57.10;;;;;;5054815;28;20167;-60
2023/03/30 05:12:39;;;;;;;1.52;1.30;;;16.00;57.10;;;;;;5053998;28;20190;-61
2023/03/30 05:15:05;;;;;;;2.45;1.30;;;16.00;57.10;;;;;;5054470;28;20172;-61
2023/03/30 05:17:34;;;;;;;1.77;1.25;;;16.00;57.10;;;;;;5054655;28;20690;-61
2023/03/30 05:19:59;;;;;;;1.15;1.05;;;16.00;56.90;;;;;;5053558;28;20634;-62
2023/03/30 05:22:25;;;;;;;1.27;1.20;;;16.00;57.10;;;;;;5054919;28;20278;-61
2023/03/30 05:24:51;;;;;;;1.20;1.10;;;16.00;57.10;;;;;;5054282;28;20209;-61
2023/03/30 05:27:17;;;;;;;1.92;1.38;;;16.00;57.10;;;;;;5053841;28;20202;-61
2023/03/30 05:29:43;;;;;;;1.52;1.20;;;16.00;57.10;;;;;;5054172;28;20183;-62
2023/03/30 05:32:08;;;;;;;1.50;1.40;;;16.00;57.10;;;;;;5054296;28;20175;-63
2023/03/30 05:34:34;;;;;;;2.08;1.25;;;16.00;57.10;;;;;;5053587;28;20194;-62
2023/03/30 05:36:59;;;;;;;1.95;1.17;;;16.00;57.10;;;;;;5054108;28;20293;-62
2023/03/30 05:39:25;;;;;;;1.25;1.15;;;16.00;57.10;;;;;;5054047;28;20182;-61
2023/03/30 05:41:51;;;;;;;1.40;1.20;;;16.00;57.10;;;;;;5053228;28;20179;-61
2023/03/30 05:44:17;;;;;;;1.30;1.20;;;16.00;57.00;;;;;;5054097;28;20715;-62
2023/03/30 05:46:42;;;;;;;1.38;1.25;;;16.00;57.10;;;;;;5053726;28;20186;-62
2023/03/30 05:49:08;;;;;;;1.38;1.27;;;16.00;57.00;;;;;;5053420;28;20725;-61
2023/03/30 05:51:33;;;;;;;1.80;1.40;;;16.00;57.00;;;;;;5053944;28;20267;-61
2023/03/30 05:53:59;;;;;;;2.70;1.50;;;16.00;56.90;;;;;;5053729;28;20253;-61
2023/03/30 05:56:26;;;;;;;1.40;1.25;;;16.00;57.10;;;;;;5052414;28;20175;-62
2023/03/30 05:58:51;;;;;;;1.23;1.13;;;16.00;57.00;;;;;;5053505;28;20187;-61
2023/03/30 06:01:17;;;;;;;1.95;1.30;;;16.00;57.10;;;;;;5054120;28;20641;-62
2023/03/30 06:03:42;;;;;;;1.52;1.00;;;16.10;57.20;;;;;;5052802;28;20590;-62
2023/03/30 06:06:08;;;;;;;2.05;1.42;;;16.10;57.10;;;;;;5053983;28;20697;-61
2023/03/30 06:08:34;;;;;;;1.90;1.38;;;16.10;56.90;;;;;;5053780;28;20254;-60
2023/03/30 06:11:00;;;;;;;1.92;1.00;;;16.20;56.90;;;;;;5053007;28;20181;-60
2023/03/30 06:13:26;;;;;;;1.30;1.20;;;16.20;56.90;;;;;;5053661;28;20183;-61
2023/03/30 06:15:52;;;;;;;1.30;1.20;;;16.20;56.80;;;;;;5052778;28;20179;-61
2023/03/30 06:18:17;;;;;;;1.92;1.50;;;16.30;56.80;;;;;;5053510;28;20211;-60
2023/03/30 06:20:46;;;;;;;1.90;1.20;;;16.40;56.70;;;;;;5053216;28;20222;-60
2023/03/30 06:23:12;;;;;;;0.90;0.90;;;16.50;56.60;;;;;;5052752;28;20647;-61
2023/03/30 06:25:37;;;;;;;1.10;1.10;;;16.50;56.50;;;;;;5053336;28;20644;-61
2023/03/30 06:28:03;;;;;;;1.45;1.30;;;16.60;56.40;;;;;;5053193;28;20213;-61
2023/03/30 06:30:28;;;;;;;2.78;1.33;;;16.70;56.30;;;;;;5052536;28;20626;-62
2023/03/30 06:32:54;;;;;;;1.70;1.38;;;16.70;56.80;;;;;;5053131;28;20171;-63
2023/03/30 06:35:20;;;;;;;2.13;1.10;;;16.80;56.10;;;;;;5053125;28;20613;-70
2023/03/30 06:37:45;;;;;;;1.55;1.42;;;16.90;56.10;;;;;;5052149;28;20222;-61
2023/03/30 06:40:12;;;;;;;2.55;1.20;;;16.90;56.10;;;;;;5053115;28;20172;-63
2023/03/30 06:42:42;;;;;;;2.35;1.20;;;17.00;56.10;;;;;;5052982;28;20669;-61
2023/03/30 06:45:09;;;;;;;1.10;1.10;;;17.10;56.30;;;;;;5052021;28;20183;-62
2023/03/30 06:47:35;;;;;;;2.97;1.42;;;17.10;56.30;;;;;;5052361;28;20415;-62
2023/03/30 06:50:00;;;;;;;1.33;1.23;;;17.20;56.50;;;;;;5052667;28;20262;-61
2023/03/30 06:52:26;;;;;;;1.67;1.20;;;17.20;56.50;;;;;;5052150;28;20576;-63
2023/03/30 06:54:51;;;;;;;2.58;1.23;;;17.20;56.60;;;;;;5052066;28;20562;-62
2023/03/30 06:57:17;;;;;;;2.90;1.33;;;17.20;56.80;;;;;;5053961;28;20224;-62
2023/03/30 06:59:42;;;;;;;1.50;1.08;;;17.20;56.90;;;;;;5057123;28;20256;-64
2023/03/30 07:02:17;;;;;;;1.70;1.08;;;17.00;57.00;;;;;;5068689;28;20183;-64
2023/03/30 07:04:45;;;;;;;2.08;1.77;;;17.10;57.20;;;;;;5071446;28;20181;-64
2023/03/30 07:07:11;;;;;;;1.50;1.10;;;17.10;57.40;;;;;;5072137;28;20178;-61
2023/03/30 07:09:37;;;;;;;2.20;1.20;;;17.00;57.30;;;;;;5072292;28;20182;-60
2023/03/30 07:12:02;;;;;;;3.85;1.10;;;17.00;57.70;;;;;;5071293;28;20170;-62
2023/03/30 07:14:28;;;;;;;3.63;1.45;;;17.00;57.60;;;;;;5072832;28;20320;-63
2023/03/30 07:16:53;;;;;;;2.85;1.33;;;17.00;58.10;;;;;;5072386;28;20237;-65
2023/03/30 07:19:19;;;;;;;3.72;1.17;;;16.90;57.80;;;;;;5071880;28;20190;-64
2023/03/30 07:21:44;;;;;;;3.25;1.55;;;16.90;58.00;;;;;;5072132;28;20309;-64
2023/03/30 07:24:10;;;;;;;3.03;1.48;;;16.80;58.20;;;;;;5072660;28;20673;-63
2023/03/30 07:26:36;;;;;;;1.95;1.60;;;16.80;58.20;;;;;;5071721;28;20253;-63
2023/03/30 07:29:01;;;;;;;5.15;1.40;;;16.80;58.00;;;;;;5072078;28;20671;-64
2023/03/30 07:31:27;;;;;;;2.08;1.20;;;16.80;58.20;;;;;;5072323;28;20189;-65
2023/03/30 07:33:52;;;;;;;1.35;1.15;;;16.80;58.00;;;;;;5071562;28;20181;-66
2023/03/30 07:36:18;;;;;;;3.13;1.55;;;16.80;58.00;;;;;;5072476;28;20218;-64
2023/03/30 07:38:44;;;;;;;2.67;1.55;;;16.80;58.00;;;;;;5071880;28;20297;-64
2023/03/30 07:41:11;;;;;;;2.53;1.20;;;16.80;57.90;;;;;;5071553;28;20189;-64
2023/03/30 07:43:39;;;;;;;2.40;1.60;;;16.80;57.90;;;;;;5072517;28;20216;-64
2023/03/30 07:46:05;;;;;;;3.35;1.45;;;16.80;58.00;;;;;;5072141;28;20175;-65
2023/03/30 07:48:30;;;;;;;1.90;1.40;;;16.80;58.20;;;;;;5071546;28;20715;-64
2023/03/30 07:51:12;;;;;;;2.22;1.35;;;16.70;58.20;;;;;;5071965;28;20174;-64
2023/03/30 07:53:38;;;;;;;2.92;1.52;;;16.70;58.30;;;;;;5072238;28;20607;-64
2023/03/30 07:56:04;;;;;;;2.15;1.58;;;16.70;58.50;;;;;;5071439;28;20641;-64
2023/03/30 07:58:30;;;;;;;2.15;1.17;;;16.60;58.40;;;;;;5072174;28;20764;-65
2023/03/30 08:00:56;;;;;;;2.60;1.48;;;16.60;58.50;;;;;;5071977;28;20174;-65
2023/03/30 08:03:23;;;;;;;1.67;1.50;;;16.60;58.70;;;;;;5071594;28;20185;-64
2023/03/30 08:05:58;;;;;;;2.45;1.55;;;16.60;58.70;;;;;;5072056;28;20170;-63
2023/03/30 08:08:23;;;;;;;4.68;1.88;;;16.60;58.70;;;;;;5071286;28;20220;-64
2023/03/30 08:10:49;;;;;;;4.68;1.58;;;16.60;58.80;;;;;;5071752;28;20174;-63
2023/03/30 08:13:15;;;;;;;3.35;1.48;;;16.60;58.80;;;;;;5072235;28;20203;-63
2023/03/30 08:15:40;;;;;;;2.42;1.45;;;16.60;58.80;;;;;;5071418;28;20262;-63
2023/03/30 08:18:06;;;;;;;3.05;1.30;;;16.60;58.80;;;;;;5071697;28;20565;-63
2023/03/30 08:20:35;;;;;;;2.50;1.63;;;16.60;58.80;;;;;;5073679;28;20265;-63
2023/03/30 08:23:01;;;;;;;2.50;1.30;;;16.60;58.70;;;;;;5074942;28;20707;-62
2023/03/30 08:25:27;;;;;;;2.33;1.70;;;16.60;58.70;;;;;;5075934;28;20582;-63
2023/03/30 08:27:52;;;;;;;3.33;1.27;;;16.60;58.70;;;;;;5075518;28;20621;-62
2023/03/30 08:30:18;;;;;;;2.53;1.30;;;16.60;58.60;;;;;;5074907;28;20257;-64
2023/03/30 08:32:44;;;;;;;4.75;1.58;;;16.60;58.60;;;;;;5075386;28;20257;-65
2023/03/30 08:35:10;;;;;;;3.47;1.40;;;16.60;58.50;;;;;;5075441;28;20596;-64
2023/03/30 08:37:36;;;;;;;2.97;1.60;;;16.60;58.60;;;;;;5074630;28;20263;-64
2023/03/30 08:40:02;;;;;;;2.53;1.55;;;16.70;58.60;;;;;;5075034;28;20265;-64
2023/03/30 08:42:39;;;;;;;3.85;1.48;;;16.60;58.60;;;;;;5075504;28;20178;-64
2023/03/30 08:45:07;;;;;;;2.38;1.30;;;16.70;58.50;;;;;;5074592;28;20180;-64
2023/03/30 08:47:37;;;;;;;2.60;1.40;;;16.70;58.30;;;;;;5057630;28;20560;-64
2023/03/30 08:50:34;;;;;;;2.28;1.40;;;16.80;58.10;;;;;;5073839;28;20182;-63
2023/03/30 08:53:00;;;;;;;3.90;1.40;;;16.80;58.10;;;;;;5073774;28;20186;-63
2023/03/30 08:55:38;;;;;;;2.38;1.25;;;16.70;58.20;;;;;;5075360;28;20177;-63
2023/03/30 08:58:13;;;;;;;5.63;1.92;;;16.70;58.40;;;;;;5073921;28;20290;-65
2023/03/30 09:00:46;;;;;;;2.70;1.45;;;16.70;58.40;;;;;;5074035;28;20169;-64
2023/03/30 09:03:23;;;;;;;4.43;1.50;;;16.70;58.50;;;;;;5058105;28;20186;-64
2023/03/30 09:05:51;;;;;;;3.78;1.42;;;16.60;58.40;;;;;;5056913;28;20170;-64
2023/03/30 09:08:26;;;;;;;2.28;1.17;;;16.60;58.50;;;;;;5073580;28;20181;-62
2023/03/30 09:11:03;;;;;;;3.03;1.40;;;16.60;58.60;;;;;;5073407;28;20295;-62
2023/03/30 09:13:38;;;;;;;2.92;1.85;;;16.60;58.60;;;;;;5057799;28;20215;-63
2023/03/30 09:16:38;;;;;;;3.33;2.05;;;16.60;58.80;;;;;;5073459;28;20216;-62
2023/03/30 09:19:03;;;;;;;3.97;1.80;;;16.60;58.80;;;;;;5073692;28;20186;-62
2023/03/30 09:21:30;;;;;;;3.92;1.30;;;16.60;58.80;;;;;;5073267;28;20306;-62
2023/03/30 09:23:57;;;;;;;2.15;1.20;;;16.60;58.60;;;;;;5073384;28;20179;-63
2023/03/30 09:26:33;;;;;;;3.10;1.20;;;16.60;58.70;;;;;;5072812;28;20219;-63
2023/03/30 09:29:00;;;;;;;3.40;1.95;;;16.60;58.70;;;;;;5074229;28;20178;-63
2023/03/30 09:31:43;;;;;;;4.03;1.58;;;16.50;58.80;;;;;;5073279;28;20303;-64
2023/03/30 09:34:17;;;;;;;4.38;1.80;;;16.50;58.80;;;;;;5072884;28;20178;-64
2023/03/30 09:36:56;;;;;;;3.97;1.52;;;16.60;58.80;;;;;;5074023;28;20682;-64
2023/03/30 09:39:24;;;;;;;3.20;1.70;;;16.60;58.80;;;;;;5074376;28;20192;-63
2023/03/30 09:41:49;;;;;;;5.20;2.10;;;16.60;58.60;;;;;;5073353;28;20266;-64
2023/03/30 09:44:34;;;;;;;2.78;1.30;;;16.70;58.50;;;;;;5074406;28;20277;-63
2023/03/30 09:47:06;;;;;;;5.22;1.58;;;16.70;58.20;;;;;;5073146;28;20751;-64
2023/03/30 09:49:38;;;;;;;3.38;1.40;;;16.80;58.20;;;;;;5073079;28;20178;-63
2023/03/30 09:52:05;;;;;;;3.70;2.00;;;16.90;58.00;;;;;;5073924;28;20181;-63
2023/03/30 09:54:38;;;;;;;3.58;1.45;;;16.90;57.90;;;;;;5072186;28;20570;-63
2023/03/30 09:57:04;;;;;;;4.25;1.95;;;16.90;58.00;;;;;;5073719;28;20202;-63
2023/03/30 09:59:31;;;;;;;4.22;1.73;;;16.80;58.00;;;;;;5072909;28;20186;-64
2023/03/30 10:02:12;;;;;;;4.50;1.60;;;16.80;58.20;;;;;;5073046;28;20175;-64
2023/03/30 10:04:52;;;;;;;4.90;1.92;;;16.70;58.30;;;;;;5073831;28;20177;-65
2023/03/30 10:07:35;;;;;;;4.25;1.75;;;16.70;58.40;;;;;;5073763;28;20578;-63
2023/03/30 10:10:32;;;;;;;2.65;1.67;;;16.80;58.30;;;;;;5073038;28;20262;-63
2023/03/30 10:13:07;;;;;;;3.75;1.70;;;16.80;58.30;;;;;;5073358;28;20178;-63
2023/03/30 10:15:35;;;;;;;4.43;1.67;;;16.80;58.40;;;;;;5071582;28;20628;-63
2023/03/30 10:18:02;;;;;;;3.45;1.80;;;16.80;58.40;;;;;;5055900;28;20378;-62
2023/03/30 10:20:28;;;;;;;4.35;1.80;;;16.80;58.20;;;;;;5072301;28;20218;-63
2023/03/30 10:23:18;;;;;;;3.17;2.08;;;16.90;58.00;;;;;;5072518;28;20201;-63
2023/03/30 10:25:45;;;;;;;3.85;1.90;;;16.90;58.10;;;;;;5070081;28;20587;-63
2023/03/30 10:28:32;;;;;;;4.90;1.77;;;16.90;58.10;;;;;;5072188;28;20198;-63
2023/03/30 10:30:59;;;;;;;6.78;2.00;;;16.80;58.20;;;;;;5072421;28;20249;-64
2023/03/30 10:33:26;;;;;;;3.42;1.63;;;16.80;58.10;;;;;;5071938;28;20633;-64
2023/03/30 10:35:55;;;;;;;4.57;1.60;;;16.80;58.30;;;;;;5071551;28;20180;-64
2023/03/30 10:38:21;;;;;;;5.18;2.50;;;16.70;58.40;;;;;;5071766;28;20209;-63
2023/03/30 10:40:46;;;;;;;2.45;1.52;;;16.70;58.40;;;;;;5071813;28;20202;-64
2023/03/30 10:43:25;;;;;;;4.28;1.55;;;16.70;58.50;;;;;;5070722;28;20575;-63
2023/03/30 10:45:55;;;;;;;3.40;2.03;;;16.70;58.50;;;;;;5055361;28;20214;-64
2023/03/30 10:48:33;;;;;;;3.17;1.88;;;16.70;58.50;;;;;;5071924;28;20236;-64
2023/03/30 10:51:21;;;;;;;3.63;1.60;;;16.70;58.40;;;;;;5071193;28;20315;-63
2023/03/30 10:54:18;;;;;;;5.45;1.95;;;16.70;58.40;;;;;;5072518;28;20269;-64
2023/03/30 10:56:51;;;;;;;2.53;1.50;;;16.80;58.40;;;;;;5071241;28;20174;-64
2023/03/30 10:59:23;;;;;;;3.28;1.77;;;16.80;58.40;;;;;;5072360;28;20186;-64
2023/03/30 11:01:55;;;;;;;4.78;1.63;;;16.90;58.10;;;;;;5072631;28;20180;-65
2023/03/30 11:04:29;;;;;;;3.80;1.60;;;16.90;58.60;;;;;;5072148;28;20210;-64
2023/03/30 11:06:55;;;;;;;4.22;1.75;;;16.90;58.00;;;;;;5072414;28;20573;-63
2023/03/30 11:09:23;;;;;;;4.10;1.90;;;16.90;58.10;;;;;;5054868;28;20179;-63
2023/03/30 11:11:55;;;;;;;4.20;1.80;;;16.90;58.10;;;;;;5054020;28;20258;-64
2023/03/30 11:14:28;;;;;;;5.00;1.85;;;16.80;58.20;;;;;;5071178;28;20661;-61
2023/03/30 11:17:00;;;;;;;2.53;1.70;;;16.80;58.30;;;;;;5070841;28;20221;-62
2023/03/30 11:19:30;;;;;;;5.47;1.95;;;16.80;58.00;;;;;;5054163;28;20261;-63
2023/03/30 11:22:27;;;;;;;3.75;2.20;;;16.90;58.10;;;;;;5054164;28;20222;-63
2023/03/30 11:24:54;;;;;;;6.20;2.15;;;16.90;58.10;;;;;;5072175;28;20174;-63
2023/03/30 11:27:29;;;;;;;6.63;2.30;;;16.90;58.00;;;;;;5070088;28;20202;-63
2023/03/30 11:30:08;;;;;;;6.47;2.65;;;16.90;58.00;;;;;;5071971;28;20630;-65
2023/03/30 11:32:55;;;;;;;5.65;2.28;;;16.90;58.00;;;;;;5071386;28;20182;-66
2023/03/30 11:35:40;;;;;;;6.43;2.38;;;16.90;58.10;;;;;;5070630;28;20578;-64
2023/03/30 11:38:18;;;;;;;6.90;2.15;;;16.90;58.20;;;;;;5070594;28;20229;-63
2023/03/30 11:40:52;;;;;;;5.25;2.05;;;17.00;58.00;;;;;;5054625;28;20174;-64
2023/03/30 11:43:18;;;;;;;5.65;2.45;;;17.20;57.90;;;;;;5071115;28;20182;-69
2023/03/30 11:46:06;;;;;;;6.50;2.60;;;17.20;57.70;;;;;;5071918;28;20178;-68
2023/03/30 11:48:56;;;;;;;7.18;2.45;;;17.20;57.70;;;;;;5070025;28;20204;-67
2023/03/30 11:51:36;;;;;;;6.20;2.30;;;17.10;57.80;;;;;;5072067;28;20186;-69
2023/03/30 11:54:05;;;;;;;5.57;2.00;;;17.10;58.60;;;;;;5070889;28;20178;-69
2023/03/30 11:56:45;;;;;;;6.22;2.13;;;17.10;58.10;;;;;;5071605;28;20337;-69
2023/03/30 11:59:45;;;;;;;5.32;2.35;;;17.10;58.20;;;;;;5072111;28;20207;-62
2023/03/30 12:02:25;;;;;;;4.32;1.83;;;17.10;58.30;;;;;;5070396;28;20265;-64
2023/03/30 12:05:07;;;;;;;6.03;2.15;;;17.00;58.30;;;;;;5071679;28;20182;-63
2023/03/30 12:07:52;;;;;;;6.43;2.17;;;17.10;58.40;;;;;;5069926;28;20182;-63
2023/03/30 12:10:39;;;;;;;4.50;2.22;;;17.00;58.30;;;;;;5070854;28;20167;-62
2023/03/30 12:13:05;;;;;;;5.70;2.08;;;17.10;58.40;;;;;;5071687;28;20201;-63
2023/03/30 12:15:39;;;;;;;4.88;2.10;;;17.00;58.30;;;;;;5053301;28;20633;-62
2023/03/30 12:18:18;;;;;;;5.07;2.55;;;17.10;58.40;;;;;;5070176;28;20218;-62
2023/03/30 12:21:04;;;;;;;5.00;1.77;;;17.10;58.40;;;;;;5070298;28;20287;-63
2023/03/30 12:23:42;;;;;;;5.50;2.10;;;17.10;58.30;;;;;;5069841;28;20221;-64
2023/03/30 12:26:22;;;;;;;5.82;2.20;;;17.10;58.20;;;;;;5070330;28;20190;-64
2023/03/30 12:28:59;;;;;;;7.78;2.30;;;17.10;58.10;;;;;;5069732;28;20170;-65
2023/03/30 12:31:50;;;;;;;4.03;2.13;;;17.10;58.20;;;;;;5071861;28;20655;-66
2023/03/30 12:34:19;;;;;;;4.10;2.22;;;17.00;58.20;;;;;;5071722;28;20190;-65
2023/03/30 12:36:51;;;;;;;6.10;2.22;;;17.00;58.10;;;;;;5070613;28;20250;-65
2023/03/30 12:39:32;;;;;;;4.80;1.88;;;17.00;58.20;;;;;;5054733;28;20190;-64
2023/03/30 12:42:24;;;;;;;3.53;1.88;;;17.00;58.10;;;;;;5070197;28;20170;-63
2023/03/30 12:45:15;;;;;;;9.05;2.53;;;17.00;58.20;;;;;;5070654;28;20204;-65
2023/03/30 12:48:01;;;;;;;8.52;2.38;;;17.00;58.30;;;;;;5071578;28;20629;-65
2023/03/30 12:51:17;;;;;;;4.78;2.08;;;17.10;58.30;;;;;;5070905;28;20228;-63
2023/03/30 12:54:04;;;;;;;5.97;2.28;;;17.20;58.10;;;;;;5059012;28;20194;-64
2023/03/30 12:56:35;;;;;;;3.92;2.10;;;17.30;58.10;;;;;;5071507;28;20252;-66
2023/03/30 12:59:08;;;;;;;6.63;2.08;;;17.50;57.90;;;;;;5071281;28;20587;-64
2023/03/30 13:02:04;;;;;;;5.70;2.50;;;17.50;57.80;;;;;;5054251;28;20635;-65
2023/03/30 13:04:36;;;;;;;7.43;2.58;;;17.60;57.80;;;;;;5070940;28;20307;-65
2023/03/30 13:07:03;;;;;;;4.00;1.88;;;17.50;57.80;;;;;;5073717;28;20236;-63
2023/03/30 13:09:31;;;;;;;5.80;2.15;;;17.50;57.80;;;;;;5074987;28;20175;-64